createdAt,value
2019-03-31T00:01:49.499Z,49.00
2019-03-31T00:04:16.738Z,50.43
2019-03-31T00:06:44.085Z,48.40
2019-03-31T00:09:11.378Z,49.27
2019-03-31T00:11:38.623Z,49.47
2019-03-31T00:14:05.851Z,55.20
2019-03-31T00:16:33.200Z,50.07
2019-03-31T00:19:00.422Z,54.13
2019-03-31T00:21:27.756Z,57.50
2019-03-31T00:23:54.999Z,58.13
2019-03-31T00:26:22.236Z,55.73
2019-03-31T00:28:49.467Z,54.63
2019-03-31T00:31:22.399Z,60.13
2019-03-31T00:33:45.904Z,51.70
2019-03-31T00:36:13.145Z,52.93
2019-03-31T00:38:40.383Z,60.40
2019-03-31T00:41:07.637Z,59.90
2019-03-31T00:43:34.872Z,60.63
2019-03-31T00:46:02.225Z,60.20
2019-03-31T00:48:29.843Z,62.20
2019-03-31T00:50:57.088Z,60.53
2019-03-31T00:53:24.327Z,58.57
2019-03-31T00:55:51.584Z,58.00
2019-03-31T00:58:19.283Z,61.30
2019-03-31T01:01:05.273Z,67.50
2019-03-31T01:03:34.373Z,63.80
2019-03-31T01:06:02.091Z,64.03
2019-03-31T01:08:32.959Z,65.90
2019-03-31T01:11:04.504Z,64.87
2019-03-31T01:13:32.727Z,63.50
2019-03-31T01:16:01.074Z,64.33
2019-03-31T01:18:28.912Z,65.87
2019-03-31T01:20:56.240Z,65.97
2019-03-31T01:23:23.574Z,63.67
2019-03-31T01:25:51.218Z,63.70
2019-03-31T01:28:18.478Z,63.13
2019-03-31T01:30:45.923Z,66.30
2019-03-31T01:33:13.280Z,65.50
2019-03-31T01:35:40.515Z,65.33
2019-03-31T01:38:08.181Z,66.17
2019-03-31T01:40:35.587Z,66.87
2019-03-31T01:43:03.223Z,65.37
2019-03-31T01:45:30.451Z,63.70
2019-03-31T01:47:57.791Z,67.23
2019-03-31T01:50:26.343Z,66.57
2019-03-31T01:52:53.646Z,65.40
2019-03-31T01:55:20.939Z,65.67
2019-03-31T01:57:48.171Z,62.23
2019-03-31T02:00:35.667Z,63.73
2019-03-31T02:03:03.128Z,64.17
2019-03-31T02:05:30.470Z,61.60
2019-03-31T02:07:57.696Z,64.27
2019-03-31T02:10:24.949Z,64.73
2019-03-31T02:12:52.191Z,60.90
2019-03-31T02:15:19.439Z,63.67
2019-03-31T02:17:46.679Z,63.67
2019-03-31T02:20:13.907Z,62.00
2019-03-31T02:22:41.146Z,63.50
2019-03-31T02:25:08.595Z,60.83
2019-03-31T02:27:35.841Z,62.07
2019-03-31T02:30:03.677Z,62.30
2019-03-31T02:32:30.931Z,62.03
2019-03-31T02:34:58.181Z,61.63
2019-03-31T02:37:25.407Z,62.03
2019-03-31T02:39:52.759Z,64.13
2019-03-31T02:42:19.991Z,63.40
2019-03-31T02:44:47.242Z,61.43
2019-03-31T02:47:14.491Z,61.17
2019-03-31T02:49:41.744Z,62.70
2019-03-31T02:52:09.196Z,63.67
2019-03-31T02:54:36.650Z,60.47
2019-03-31T02:57:04.464Z,61.90
2019-03-31T02:59:31.994Z,62.23
2019-03-31T03:02:01.263Z,63.50
2019-03-31T03:04:30.892Z,64.43
2019-03-31T03:07:01.560Z,61.70
2019-03-31T03:09:31.104Z,62.30
2019-03-31T03:11:59.751Z,61.23
2019-03-31T03:14:28.998Z,61.17
2019-03-31T03:16:56.326Z,60.57
2019-03-31T03:19:23.559Z,62.57
2019-03-31T03:21:50.802Z,63.03
2019-03-31T03:24:18.148Z,63.50
2019-03-31T03:26:45.383Z,61.37
2019-03-31T03:29:12.621Z,64.00
2019-03-31T03:31:39.874Z,65.13
2019-03-31T03:34:07.113Z,63.97
2019-03-31T03:36:34.485Z,63.20
2019-03-31T03:39:02.309Z,65.33
2019-03-31T03:41:29.568Z,65.60
2019-03-31T03:44:01.956Z,64.77
2019-03-31T03:46:25.972Z,63.97
2019-03-31T03:48:53.359Z,66.63
2019-03-31T03:51:20.652Z,67.13
2019-03-31T03:53:47.904Z,65.53
2019-03-31T03:56:15.146Z,68.07
2019-03-31T03:58:42.480Z,64.17
2019-03-31T04:01:14.896Z,62.47
2019-03-31T04:03:42.124Z,64.50
2019-03-31T04:06:09.559Z,66.23
2019-03-31T04:08:36.807Z,64.73
2019-03-31T04:11:32.324Z,67.63
2019-03-31T04:13:59.559Z,64.60
2019-03-31T04:16:27.611Z,66.97
2019-03-31T04:18:55.016Z,66.37
2019-03-31T04:21:22.493Z,68.43
2019-03-31T04:23:49.754Z,65.57
2019-03-31T04:26:17.066Z,64.57
2019-03-31T04:28:44.502Z,65.30
2019-03-31T04:31:11.920Z,67.00
2019-03-31T04:33:50.464Z,63.77
2019-03-31T04:36:08.318Z,62.47
2019-03-31T04:38:35.564Z,64.17
2019-03-31T04:41:03.456Z,65.33
2019-03-31T04:43:30.716Z,66.90
2019-03-31T04:45:58.171Z,63.43
2019-03-31T04:48:25.437Z,65.50
2019-03-31T04:50:52.668Z,64.97
2019-03-31T04:53:20.148Z,63.33
2019-03-31T04:55:47.388Z,64.17
2019-03-31T04:58:14.635Z,64.73
2019-03-31T05:00:41.887Z,63.80
2019-03-31T05:03:09.156Z,63.70
2019-03-31T05:05:36.398Z,63.77
2019-03-31T05:08:03.739Z,66.00
2019-03-31T05:10:30.986Z,62.97
2019-03-31T05:12:58.259Z,63.07
2019-03-31T05:15:25.495Z,61.53
2019-03-31T05:17:52.753Z,61.57
2019-03-31T05:20:19.991Z,58.10
2019-03-31T05:22:47.225Z,61.77
2019-03-31T05:25:14.471Z,60.33
2019-03-31T05:27:41.723Z,59.87
2019-03-31T05:30:15.012Z,58.03
2019-03-31T05:32:42.252Z,57.67
2019-03-31T05:35:09.935Z,56.67
2019-03-31T05:37:50.251Z,57.40
2019-03-31T05:40:06.520Z,55.57
2019-03-31T05:42:33.768Z,56.30
2019-03-31T05:45:01.019Z,53.87
2019-03-31T05:47:28.266Z,51.33
2019-03-31T05:49:55.553Z,49.53
2019-03-31T05:52:22.796Z,50.60
2019-03-31T05:54:50.039Z,49.30
2019-03-31T05:57:17.304Z,47.87
2019-03-31T05:59:44.540Z,49.07
2019-03-31T06:02:11.775Z,48.97
2019-03-31T06:04:39.023Z,48.70
2019-03-31T06:07:06.257Z,47.27
2019-03-31T06:09:33.601Z,43.10
2019-03-31T06:12:00.939Z,41.73
2019-03-31T06:14:28.176Z,43.60
2019-03-31T06:16:55.419Z,41.83
2019-03-31T06:19:22.661Z,43.10
2019-03-31T06:21:49.901Z,40.87
2019-03-31T06:24:17.148Z,39.97
2019-03-31T06:26:44.415Z,38.40
2019-03-31T06:29:11.659Z,38.00
2019-03-31T06:31:38.904Z,37.97
2019-03-31T06:34:06.147Z,35.40
2019-03-31T06:36:33.395Z,33.93
2019-03-31T06:39:00.650Z,34.07
2019-03-31T06:41:27.955Z,34.10
2019-03-31T06:43:55.229Z,33.37
2019-03-31T06:46:22.463Z,33.37
2019-03-31T06:48:49.728Z,32.70
2019-03-31T06:51:17.303Z,31.47
2019-03-31T06:53:44.835Z,31.73
2019-03-31T06:56:12.115Z,32.17
2019-03-31T06:58:39.344Z,30.27
2019-03-31T07:01:06.608Z,31.97
2019-03-31T07:03:33.864Z,33.53
2019-03-31T07:06:01.227Z,32.13
2019-03-31T07:08:28.771Z,31.60
2019-03-31T07:10:56.024Z,32.40
2019-03-31T07:13:23.251Z,32.40
2019-03-31T07:15:50.510Z,27.70
2019-03-31T07:18:18.207Z,29.63
2019-03-31T07:20:45.463Z,29.90
2019-03-31T07:23:12.711Z,29.83
2019-03-31T07:25:40.063Z,28.53
2019-03-31T07:28:07.673Z,27.77
2019-03-31T07:30:34.926Z,25.60
2019-03-31T07:33:02.271Z,27.07
2019-03-31T07:35:29.515Z,28.10
2019-03-31T07:37:56.751Z,27.80
2019-03-31T07:40:24.248Z,25.73
2019-03-31T07:42:51.594Z,26.30
2019-03-31T07:45:19.356Z,27.43
2019-03-31T07:47:46.799Z,26.00
2019-03-31T07:50:15.207Z,27.43
2019-03-31T07:52:42.563Z,25.70
2019-03-31T07:55:11.455Z,25.57
2019-03-31T07:57:39.010Z,25.60
2019-03-31T08:00:10.411Z,25.87
2019-03-31T08:02:37.655Z,26.33
2019-03-31T08:05:06.494Z,28.40
2019-03-31T08:07:33.991Z,27.13
2019-03-31T08:10:01.335Z,26.10
2019-03-31T08:12:28.687Z,26.67
2019-03-31T08:14:56.319Z,26.87
2019-03-31T08:17:23.604Z,24.87
2019-03-31T08:19:51.036Z,26.57
2019-03-31T08:22:18.292Z,26.40
2019-03-31T08:24:45.532Z,26.23
2019-03-31T08:27:13.700Z,25.93
2019-03-31T08:29:41.227Z,26.00
2019-03-31T08:32:09.200Z,24.97
2019-03-31T08:34:36.551Z,26.50
2019-03-31T08:37:03.890Z,26.43
2019-03-31T08:39:31.127Z,26.60
2019-03-31T08:41:58.360Z,25.73
2019-03-31T08:44:25.603Z,25.30
2019-03-31T08:46:52.855Z,25.23
2019-03-31T08:49:20.079Z,24.23
2019-03-31T08:51:47.325Z,23.47
2019-03-31T08:54:14.561Z,21.37
2019-03-31T08:56:41.813Z,20.53
2019-03-31T08:59:09.051Z,19.90
2019-03-31T09:01:36.296Z,17.63
2019-03-31T09:04:03.651Z,16.43
2019-03-31T09:06:30.899Z,16.10
2019-03-31T09:08:58.154Z,15.27
2019-03-31T09:11:25.483Z,16.37
2019-03-31T09:13:52.723Z,14.33
2019-03-31T09:16:20.296Z,15.13
2019-03-31T09:18:47.530Z,14.90
2019-03-31T09:21:14.881Z,14.40
2019-03-31T09:23:42.116Z,13.87
2019-03-31T09:26:09.447Z,14.60
2019-03-31T09:28:36.691Z,15.00
2019-03-31T09:31:04.031Z,14.70
2019-03-31T09:33:31.283Z,14.70
2019-03-31T09:35:58.519Z,14.23
2019-03-31T09:38:25.757Z,15.13
2019-03-31T09:40:53.007Z,15.60
2019-03-31T09:43:20.251Z,15.53
2019-03-31T09:45:47.488Z,15.57
2019-03-31T09:48:15.194Z,14.70
2019-03-31T09:50:42.472Z,14.20
2019-03-31T09:53:09.725Z,14.70
2019-03-31T09:55:36.979Z,15.43
2019-03-31T09:58:04.323Z,14.90
2019-03-31T10:00:42.941Z,15.23
2019-03-31T10:03:10.235Z,14.00
2019-03-31T10:05:37.489Z,13.93
2019-03-31T10:08:04.733Z,14.10
2019-03-31T10:10:32.483Z,15.50
2019-03-31T10:13:00.217Z,14.10
2019-03-31T10:15:27.563Z,14.30
2019-03-31T10:17:54.815Z,13.83
2019-03-31T10:20:22.232Z,12.97
2019-03-31T10:22:49.467Z,13.10
2019-03-31T10:25:16.715Z,12.33
2019-03-31T10:27:43.965Z,12.87
2019-03-31T10:30:27.573Z,12.23
2019-03-31T10:32:54.815Z,12.87
2019-03-31T10:35:22.067Z,12.40
2019-03-31T10:37:49.333Z,12.47
2019-03-31T10:40:16.784Z,13.03
2019-03-31T10:42:44.019Z,13.10
2019-03-31T10:45:12.525Z,11.93
2019-03-31T10:47:39.779Z,12.70
2019-03-31T10:50:07.499Z,11.63
2019-03-31T10:52:34.887Z,12.17
2019-03-31T10:55:02.584Z,12.57
2019-03-31T10:57:29.846Z,11.87
2019-03-31T10:59:57.459Z,11.60
2019-03-31T11:02:24.699Z,12.33
2019-03-31T11:04:51.950Z,12.03
2019-03-31T11:07:19.199Z,12.33
2019-03-31T11:09:46.439Z,14.40
2019-03-31T11:12:13.687Z,12.53
2019-03-31T11:14:40.947Z,13.10
2019-03-31T11:17:08.203Z,12.77
2019-03-31T11:19:35.492Z,13.13
2019-03-31T11:22:10.203Z,12.50
2019-03-31T11:24:37.436Z,13.77
2019-03-31T11:27:04.667Z,12.83
2019-03-31T11:29:31.928Z,14.03
2019-03-31T11:31:59.174Z,14.67
2019-03-31T11:34:26.412Z,14.27
2019-03-31T11:36:53.651Z,15.37
2019-03-31T11:39:20.911Z,14.33
2019-03-31T11:41:48.163Z,14.10
2019-03-31T11:44:15.404Z,14.43
2019-03-31T11:46:42.663Z,14.80
2019-03-31T11:49:09.917Z,14.23
2019-03-31T11:51:37.168Z,14.60
2019-03-31T11:54:04.432Z,14.13
2019-03-31T11:56:31.671Z,14.97
2019-03-31T11:58:58.924Z,14.90
2019-03-31T12:01:26.167Z,16.43
2019-03-31T12:03:53.407Z,16.10
2019-03-31T12:06:20.747Z,15.83
2019-03-31T12:08:47.991Z,14.83
2019-03-31T12:11:15.227Z,14.57
2019-03-31T12:13:42.580Z,15.83
2019-03-31T12:16:09.839Z,14.93
2019-03-31T12:18:37.184Z,14.67
2019-03-31T12:21:04.419Z,15.30
2019-03-31T12:23:31.659Z,15.73
2019-03-31T12:25:58.896Z,15.20
2019-03-31T12:28:26.143Z,13.90
2019-03-31T12:30:53.404Z,14.20
2019-03-31T12:33:20.643Z,14.07
2019-03-31T12:36:07.368Z,13.80
2019-03-31T12:38:34.608Z,13.53
2019-03-31T12:41:01.840Z,13.53
2019-03-31T12:43:48.470Z,13.10
2019-03-31T12:46:16.032Z,13.87
2019-03-31T12:48:43.275Z,13.33
2019-03-31T12:51:10.950Z,11.40
2019-03-31T12:53:38.195Z,11.43
2019-03-31T12:56:05.450Z,11.77
2019-03-31T12:58:32.927Z,11.40
2019-03-31T13:01:00.580Z,10.63
2019-03-31T13:03:27.835Z,11.27
2019-03-31T13:05:55.168Z,10.87
2019-03-31T13:08:22.406Z,9.80
2019-03-31T13:10:49.640Z,10.77
2019-03-31T13:13:16.867Z,9.93
2019-03-31T13:15:44.205Z,10.23
2019-03-31T13:18:11.419Z,10.50
2019-03-31T13:20:38.759Z,9.83
2019-03-31T13:23:06.192Z,9.23
2019-03-31T13:25:33.921Z,10.03
2019-03-31T13:28:01.166Z,9.90
2019-03-31T13:30:29.595Z,9.97
2019-03-31T13:32:56.844Z,10.50
2019-03-31T13:35:24.177Z,11.07
2019-03-31T13:37:51.419Z,11.73
2019-03-31T13:40:18.755Z,11.07
2019-03-31T13:42:46.087Z,10.07
2019-03-31T13:45:13.779Z,10.33
2019-03-31T13:47:41.095Z,10.23
2019-03-31T13:50:09.294Z,9.90
2019-03-31T13:52:36.531Z,10.30
2019-03-31T13:55:07.185Z,9.73
2019-03-31T13:57:35.176Z,10.00
2019-03-31T14:00:04.542Z,10.50
2019-03-31T14:02:31.763Z,10.03
2019-03-31T14:04:58.991Z,9.33
2019-03-31T14:07:26.327Z,9.73
2019-03-31T14:09:53.559Z,10.13
2019-03-31T14:12:20.856Z,9.53
2019-03-31T14:14:48.193Z,8.90
2019-03-31T14:17:15.439Z,9.40
2019-03-31T14:19:43.088Z,9.10
2019-03-31T14:22:10.316Z,8.37
2019-03-31T14:24:37.547Z,7.83
2019-03-31T14:27:04.885Z,8.13
2019-03-31T14:29:32.123Z,6.93
2019-03-31T14:31:59.379Z,6.53
2019-03-31T14:34:26.724Z,6.97
2019-03-31T14:36:54.055Z,6.87
2019-03-31T14:39:21.404Z,7.20
2019-03-31T14:41:48.751Z,7.73
2019-03-31T14:44:15.992Z,7.47
2019-03-31T14:46:43.241Z,7.53
2019-03-31T14:49:10.477Z,7.40
2019-03-31T14:51:37.725Z,7.30
2019-03-31T14:54:05.033Z,7.40
2019-03-31T14:56:32.291Z,7.30
2019-03-31T14:58:59.531Z,6.40
2019-03-31T15:01:26.785Z,7.10
2019-03-31T15:03:54.135Z,6.33
2019-03-31T15:06:21.374Z,6.17
2019-03-31T15:08:54.608Z,7.03
2019-03-31T15:11:18.092Z,6.80
2019-03-31T15:13:45.335Z,5.70
2019-03-31T15:16:12.579Z,5.70
2019-03-31T15:18:39.834Z,5.53
2019-03-31T15:21:07.171Z,5.90
2019-03-31T15:23:34.400Z,5.03
2019-03-31T15:26:01.749Z,5.30
2019-03-31T15:28:29.007Z,4.93
2019-03-31T15:30:56.247Z,5.30
2019-03-31T15:33:23.477Z,5.10
2019-03-31T15:35:50.735Z,5.63
2019-03-31T15:38:18.293Z,5.30
2019-03-31T15:40:48.382Z,4.93
2019-03-31T15:43:14.768Z,5.30
2019-03-31T15:45:42.111Z,5.00
2019-03-31T15:48:09.356Z,5.00
2019-03-31T15:50:36.591Z,5.17
2019-03-31T15:53:03.948Z,5.60
2019-03-31T15:55:31.207Z,5.37
2019-03-31T15:57:58.871Z,5.40
2019-03-31T16:00:26.310Z,4.87
2019-03-31T16:02:53.546Z,5.00
2019-03-31T16:05:20.874Z,5.13
2019-03-31T16:07:47.694Z,4.77
2019-03-31T16:10:15.208Z,5.20
2019-03-31T16:12:42.447Z,5.03
2019-03-31T16:15:09.643Z,4.80
2019-03-31T16:17:36.371Z,4.20
2019-03-31T16:20:04.601Z,4.17
2019-03-31T16:22:31.471Z,4.23
2019-03-31T16:24:59.391Z,4.07
2019-03-31T16:27:26.109Z,4.17
2019-03-31T16:29:52.807Z,4.37
2019-03-31T16:32:19.520Z,4.33
2019-03-31T16:34:46.215Z,3.97
2019-03-31T16:37:13.391Z,4.13
2019-03-31T16:39:40.123Z,4.03
2019-03-31T16:42:06.903Z,4.47
2019-03-31T16:44:33.643Z,3.67
2019-03-31T16:47:00.344Z,3.60
2019-03-31T16:49:27.074Z,3.50
2019-03-31T16:51:54.107Z,3.53
2019-03-31T16:54:20.804Z,3.30
2019-03-31T16:56:47.496Z,3.00
2019-03-31T16:59:14.195Z,3.30
2019-03-31T17:01:40.917Z,3.33
2019-03-31T17:04:07.619Z,3.07
2019-03-31T17:06:34.319Z,2.73
2019-03-31T17:09:01.030Z,2.70
2019-03-31T17:11:27.727Z,2.90
2019-03-31T17:13:54.447Z,2.60
2019-03-31T17:16:21.291Z,2.43
2019-03-31T17:18:48.088Z,3.07
2019-03-31T17:21:15.687Z,2.63
2019-03-31T17:23:42.391Z,3.07
2019-03-31T17:26:09.353Z,2.80
2019-03-31T17:28:36.047Z,2.97
2019-03-31T17:31:02.852Z,2.90
2019-03-31T17:33:30.387Z,2.73
2019-03-31T17:35:57.499Z,2.80
2019-03-31T17:38:24.316Z,2.60
2019-03-31T17:40:51.166Z,2.90
2019-03-31T17:43:17.868Z,3.10
2019-03-31T17:45:44.565Z,2.97
2019-03-31T17:48:11.287Z,2.70
2019-03-31T17:50:37.998Z,2.70
2019-03-31T17:53:04.700Z,2.73
2019-03-31T17:55:31.412Z,3.20
2019-03-31T17:57:58.095Z,2.57
2019-03-31T18:00:25.384Z,2.63
2019-03-31T18:02:52.094Z,2.73
2019-03-31T18:05:18.800Z,2.77
2019-03-31T18:07:45.520Z,3.00
2019-03-31T18:10:20.682Z,2.70
2019-03-31T18:12:41.159Z,3.03
2019-03-31T18:15:08.278Z,2.67
2019-03-31T18:17:34.992Z,3.37
2019-03-31T18:20:01.972Z,3.03
2019-03-31T18:22:28.679Z,2.43
2019-03-31T18:24:55.383Z,2.67
2019-03-31T18:27:22.092Z,3.00
2019-03-31T18:29:48.808Z,2.70
2019-03-31T18:32:15.518Z,2.80
2019-03-31T18:34:42.334Z,2.70
2019-03-31T18:37:09.029Z,2.87
2019-03-31T18:39:36.007Z,2.80
2019-03-31T18:42:02.930Z,2.70
2019-03-31T18:44:29.607Z,2.83
2019-03-31T18:46:56.298Z,2.77
2019-03-31T18:49:23.103Z,2.80
2019-03-31T18:51:49.815Z,2.70
2019-03-31T18:54:23.996Z,2.60
2019-03-31T18:57:01.475Z,2.80
2019-03-31T18:59:49.719Z,3.10
2019-03-31T19:02:34.956Z,2.90
2019-03-31T19:05:24.653Z,3.27
2019-03-31T19:08:10.180Z,3.47
2019-03-31T19:10:54.323Z,3.67
2019-03-31T19:13:55.123Z,3.00
2019-03-31T19:16:40.231Z,3.17
2019-03-31T19:19:35.671Z,3.20
2019-03-31T19:22:21.079Z,3.30
2019-03-31T19:25:06.017Z,2.80
2019-03-31T19:27:58.344Z,2.70
2019-03-31T19:30:43.736Z,3.33
2019-03-31T19:33:34.956Z,3.10
2019-03-31T19:36:12.249Z,3.37
2019-03-31T19:38:57.163Z,2.87
2019-03-31T19:41:43.659Z,2.63
2019-03-31T19:44:44.709Z,2.57
2019-03-31T19:47:29.455Z,3.00
2019-03-31T19:50:03.892Z,2.80
2019-03-31T19:52:41.180Z,3.00
2019-03-31T19:55:30.539Z,4.83
2019-03-31T19:58:30.255Z,3.23
2019-03-31T20:01:22.247Z,2.70
2019-03-31T20:04:27.248Z,2.77
2019-03-31T20:07:12.147Z,3.30
2019-03-31T20:10:00.548Z,3.07
2019-03-31T20:13:01.719Z,3.20
2019-03-31T20:15:52.196Z,2.60
2019-03-31T20:18:29.341Z,2.40
2019-03-31T20:21:31.422Z,2.67
2019-03-31T20:24:04.340Z,2.67
2019-03-31T20:26:40.395Z,2.70
2019-03-31T20:29:33.447Z,3.00
2019-03-31T20:32:10.323Z,2.80
2019-03-31T20:34:53.339Z,2.90
2019-03-31T20:37:38.727Z,3.20
2019-03-31T20:40:23.882Z,2.80
2019-03-31T20:43:28.215Z,3.00
2019-03-31T20:45:55.019Z,3.13
2019-03-31T20:48:21.727Z,2.93
2019-03-31T20:50:48.419Z,2.93
2019-03-31T20:53:15.139Z,2.83
2019-03-31T20:55:42.135Z,2.80
2019-03-31T20:58:08.843Z,2.67
2019-03-31T21:00:35.652Z,3.00
2019-03-31T21:03:02.343Z,2.87
2019-03-31T21:05:29.047Z,3.07
2019-03-31T21:07:55.768Z,3.40
2019-03-31T21:10:22.579Z,2.87
2019-03-31T21:12:49.295Z,2.67
2019-03-31T21:15:16.261Z,2.93
2019-03-31T21:17:42.957Z,3.20
2019-03-31T21:20:09.875Z,3.60
2019-03-31T21:22:36.592Z,2.70
2019-03-31T21:25:04.080Z,3.10
2019-03-31T21:27:30.788Z,2.97
2019-03-31T21:29:57.483Z,2.77
2019-03-31T21:32:24.202Z,3.10
2019-03-31T21:34:51.211Z,3.00
2019-03-31T21:37:17.929Z,3.60
2019-03-31T21:39:44.678Z,2.70
2019-03-31T21:42:11.443Z,3.60
2019-03-31T21:44:38.148Z,3.73
2019-03-31T21:47:04.840Z,3.47
2019-03-31T21:49:31.555Z,3.23
2019-03-31T21:51:58.267Z,3.00
2019-03-31T21:54:24.962Z,2.87
2019-03-31T21:56:51.896Z,3.17
2019-03-31T21:59:18.609Z,3.30
2019-03-31T22:01:45.314Z,2.90
2019-03-31T22:04:12.039Z,2.70
2019-03-31T22:06:38.738Z,2.70
2019-03-31T22:09:07.484Z,2.53
2019-03-31T22:11:34.199Z,3.03
2019-03-31T22:14:00.907Z,3.00
2019-03-31T22:16:27.615Z,2.67
2019-03-31T22:18:54.326Z,2.80
2019-03-31T22:21:21.028Z,2.80
2019-03-31T22:23:57.714Z,2.70
2019-03-31T22:26:19.484Z,2.53
2019-03-31T22:28:44.963Z,2.70
2019-03-31T22:31:11.753Z,3.23
2019-03-31T22:33:38.718Z,3.10
2019-03-31T22:36:20.555Z,2.43
2019-03-31T22:38:47.389Z,2.60
2019-03-31T22:41:14.095Z,2.67
2019-03-31T22:43:40.792Z,2.30
2019-03-31T22:46:07.875Z,2.73
2019-03-31T22:48:34.569Z,2.37
2019-03-31T22:51:01.274Z,2.83
2019-03-31T22:53:27.979Z,2.53
2019-03-31T22:55:54.679Z,2.50
2019-03-31T22:58:21.396Z,2.80
2019-03-31T23:00:48.095Z,2.63
2019-03-31T23:03:14.791Z,2.60
2019-03-31T23:05:41.490Z,2.50
2019-03-31T23:08:08.207Z,2.63
2019-03-31T23:10:36.047Z,2.60
2019-03-31T23:13:02.776Z,2.70
2019-03-31T23:15:29.480Z,2.47
2019-03-31T23:17:56.191Z,2.40
2019-03-31T23:20:22.991Z,2.80
2019-03-31T23:22:49.687Z,2.30
2019-03-31T23:25:16.386Z,2.40
2019-03-31T23:27:43.592Z,2.73
2019-03-31T23:30:14.135Z,2.13
2019-03-31T23:32:40.891Z,2.47
2019-03-31T23:35:07.785Z,2.67
2019-03-31T23:37:34.596Z,1.73
2019-03-31T23:40:01.497Z,2.27
2019-03-31T23:42:28.183Z,2.13
2019-03-31T23:44:54.893Z,2.80
2019-03-31T23:47:21.600Z,2.07
2019-03-31T23:49:48.280Z,2.60
2019-03-31T23:52:14.967Z,2.13
2019-03-31T23:54:41.677Z,2.17
2019-03-31T23:57:08.379Z,2.17
2019-03-31T23:59:35.079Z,1.83
